Time;durP1;ratioP1;P1;durP2;ratioP2;P2;SDS_P1;SDS_P2;PMS_P1;PMS_P2;Temp;Humidity;BMP_temperature;BMP_pressure;BME280_temperature;BME280_humidity;BME280_pressure;Samples;Min_cycle;Max_cycle;Signal;HPM_P1;HPM_P2
2023/05/10 00:00:28;;;;;;;29.98;14.73;;;;;;;;;;2555069;23;20016;-82
2023/05/10 00:04:38;;;;;;;29.15;14.50;;;;;;;;;;2557488;23;20024;-81
2023/05/10 00:06:00;;;;;;;24.60;13.30;;;;;;;;;;2545417;23;20024;-82
2023/05/10 00:07:23;;;;;;;29.70;14.85;;;;;;;;;;2539595;23;20009;-84
2023/05/10 00:08:45;;;;;;;36.03;16.27;;;;;;;;;;2540066;23;20010;-84
2023/05/10 00:10:06;;;;;;;35.53;16.85;;;;;;;;;;2552870;23;20059;-84
2023/05/10 00:11:32;;;;;;;31.92;14.48;;;;;;;;;;2546320;23;20040;-84
2023/05/10 00:12:53;;;;;;;36.47;15.73;;;;;;;;;;2552410;23;20013;-83
2023/05/10 00:14:17;;;;;;;41.45;16.98;;;;;;;;;;2544016;23;20018;-83
2023/05/10 00:15:38;;;;;;;34.78;15.77;;;;;;;;;;2539263;23;20017;-84
2023/05/10 00:16:59;;;;;;;36.45;16.23;;;;;;;;;;2554286;23;20024;-83
2023/05/10 00:18:23;;;;;;;42.05;17.08;;;;;;;;;;2544463;23;20076;-81
2023/05/10 00:19:48;;;;;;;35.05;16.33;;;;;;;;;;2554000;23;20418;-84
2023/05/10 00:21:11;;;;;;;46.55;17.67;;;;;;;;;;2542121;23;20014;-81
2023/05/10 00:22:36;;;;;;;56.67;20.30;;;;;;;;;;2537361;23;20463;-83
2023/05/10 00:24:00;;;;;;;49.75;19.67;;;;;;;;;;2549114;23;20434;-82
2023/05/10 00:25:23;;;;;;;42.90;18.40;;;;;;;;;;2535709;23;20380;-83
2023/05/10 00:26:48;;;;;;;74.18;24.00;;;;;;;;;;2545904;23;20017;-82
2023/05/10 00:28:09;;;;;;;58.72;22.33;;;;;;;;;;2536875;23;20050;-82
2023/05/10 00:29:36;;;;;;;63.80;22.27;;;;;;;;;;2545619;23;20016;-83
2023/05/10 00:30:57;;;;;;;60.33;21.13;;;;;;;;;;2531158;23;20009;-83
2023/05/10 00:32:23;;;;;;;60.47;21.30;;;;;;;;;;2546116;23;20060;-82
2023/05/10 00:33:46;;;;;;;51.70;19.85;;;;;;;;;;2537303;23;20009;-82
2023/05/10 00:35:16;;;;;;;60.00;21.67;;;;;;;;;;2532686;23;20029;-82
2023/05/10 00:36:38;;;;;;;66.32;22.92;;;;;;;;;;2540623;23;20395;-81
2023/05/10 00:39:54;;;;;;;53.38;20.08;;;;;;;;;;2551601;23;20013;-81
2023/05/10 00:41:17;;;;;;;35.95;17.60;;;;;;;;;;2545778;23;20013;-82
2023/05/10 00:42:47;;;;;;;43.97;18.58;;;;;;;;;;2549614;23;20342;-82
2023/05/10 00:44:25;;;;;;;63.70;22.33;;;;;;;;;;2540967;23;20005;-82
2023/05/10 00:49:53;;;;;;;38.17;17.58;;;;;;;;;;2548636;23;20408;-83
2023/05/10 00:51:16;;;;;;;38.85;17.63;;;;;;;;;;2544961;23;20009;-83
2023/05/10 00:52:40;;;;;;;40.65;17.45;;;;;;;;;;2537540;23;20009;-81
2023/05/10 00:54:05;;;;;;;43.45;18.40;;;;;;;;;;2548155;23;20071;-81
2023/05/10 00:55:26;;;;;;;57.75;21.42;;;;;;;;;;2520108;23;20057;-81
2023/05/10 00:56:49;;;;;;;64.22;23.00;;;;;;;;;;2543109;23;20020;-81
2023/05/10 00:58:17;;;;;;;64.53;22.58;;;;;;;;;;2531428;23;20052;-84
2023/05/10 00:59:38;;;;;;;62.70;23.42;;;;;;;;;;2532765;23;20017;-83
2023/05/10 01:01:21;;;;;;;74.80;25.40;;;;;;;;;;2541018;23;20079;-81
2023/05/10 01:02:46;;;;;;;48.25;20.02;;;;;;;;;;2554476;23;20020;-80
2023/05/10 01:04:09;;;;;;;72.80;24.13;;;;;;;;;;2534206;23;20013;-79
2023/05/10 01:05:43;;;;;;;71.00;23.90;;;;;;;;;;2540902;23;20637;-79
2023/05/10 01:07:03;;;;;;;70.68;23.90;;;;;;;;;;2534464;23;20014;-79
2023/05/10 01:08:28;;;;;;;76.43;26.38;;;;;;;;;;2534776;23;20399;-79
2023/05/10 01:09:54;;;;;;;68.05;23.40;;;;;;;;;;2544819;23;20009;-79
2023/05/10 01:11:22;;;;;;;50.67;19.95;;;;;;;;;;2540162;23;20363;-79
2023/05/10 01:12:45;;;;;;;55.50;20.95;;;;;;;;;;2551137;23;20267;-80
2023/05/10 01:14:07;;;;;;;47.15;21.27;;;;;;;;;;2544037;23;20020;-80
2023/05/10 01:15:33;;;;;;;46.85;20.63;;;;;;;;;;2529598;23;20038;-79
2023/05/10 01:16:54;;;;;;;45.45;20.02;;;;;;;;;;2553171;23;20009;-79
2023/05/10 01:18:20;;;;;;;54.33;22.97;;;;;;;;;;2540273;23;20014;-80
2023/05/10 01:19:43;;;;;;;49.53;21.73;;;;;;;;;;2538156;23;20037;-79
2023/05/10 01:21:16;;;;;;;67.45;24.83;;;;;;;;;;2547211;23;20063;-79
2023/05/10 01:22:39;;;;;;;;;;;;;;;;;;2541444;23;20013;-79
2023/05/10 01:24:09;;;;;;;58.25;23.85;;;;;;;;;;2533658;23;19911;-79
2023/05/10 01:25:36;;;;;;;68.57;24.15;;;;;;;;;;2534094;23;20228;-80
2023/05/10 01:27:09;;;;;;;69.13;25.65;;;;;;;;;;2535636;23;20013;-80
2023/05/10 01:28:42;;;;;;;73.32;26.17;;;;;;;;;;2537217;23;20395;-80
2023/05/10 01:30:25;;;;;;;64.28;25.13;;;;;;;;;;2536191;23;20445;-79
2023/05/10 01:32:08;;;;;;;73.72;24.52;;;;;;;;;;2548990;23;20024;-80
2023/05/10 01:33:42;;;;;;;70.18;25.83;;;;;;;;;;2536447;23;20214;-80
2023/05/10 01:35:11;;;;;;;66.85;25.83;;;;;;;;;;2541435;23;20013;-80
2023/05/10 01:36:37;;;;;;;72.35;26.35;;;;;;;;;;2549574;23;20044;-79
2023/05/10 01:38:07;;;;;;;73.82;29.17;;;;;;;;;;2535670;23;20021;-79
2023/05/10 01:39:28;;;;;;;67.18;25.45;;;;;;;;;;2535803;23;20048;-79
2023/05/10 01:41:10;;;;;;;75.82;27.38;;;;;;;;;;2531742;23;20437;-79
2023/05/10 01:42:36;;;;;;;67.55;26.00;;;;;;;;;;2538594;23;20367;-79
2023/05/10 01:43:57;;;;;;;71.50;27.55;;;;;;;;;;2533496;23;20017;-79
2023/05/10 01:45:18;;;;;;;64.15;26.38;;;;;;;;;;2532375;23;20044;-79
2023/05/10 01:46:40;;;;;;;62.30;24.92;;;;;;;;;;2538962;23;20048;-79
2023/05/10 01:48:10;;;;;;;60.90;25.17;;;;;;;;;;2551265;23;20021;-79
2023/05/10 01:49:34;;;;;;;60.47;24.38;;;;;;;;;;2543952;23;20013;-80
2023/05/10 01:51:01;;;;;;;62.03;26.48;;;;;;;;;;2544175;23;20013;-80
2023/05/10 01:52:26;;;;;;;74.40;27.23;;;;;;;;;;2541329;23;20005;-80
2023/05/10 01:53:47;;;;;;;75.80;26.88;;;;;;;;;;2541618;23;20056;-79
2023/05/10 01:55:12;;;;;;;77.60;28.33;;;;;;;;;;2537072;23;20020;-83
2023/05/10 01:56:34;;;;;;;84.85;29.17;;;;;;;;;;2542179;23;20068;-82
2023/05/10 01:58:10;;;;;;;80.80;28.73;;;;;;;;;;2536990;23;20022;-82
2023/05/10 01:59:40;;;;;;;81.50;28.92;;;;;;;;;;2542108;23;20010;-82
2023/05/10 02:01:03;;;;;;;98.25;32.47;;;;;;;;;;2549320;23;20013;-83
2023/05/10 02:02:24;;;;;;;93.20;31.48;;;;;;;;;;2541164;23;20057;-82
2023/05/10 02:03:51;;;;;;;91.25;31.15;;;;;;;;;;2553042;23;20132;-82
2023/05/10 02:05:16;;;;;;;91.88;29.63;;;;;;;;;;2541114;23;20347;-82
2023/05/10 02:06:42;;;;;;;85.82;31.00;;;;;;;;;;2553149;23;20431;-82
2023/05/10 02:08:08;;;;;;;98.15;31.00;;;;;;;;;;2542016;23;20006;-83
2023/05/10 02:09:32;;;;;;;95.80;32.03;;;;;;;;;;2548770;23;20009;-82
2023/05/10 02:10:55;;;;;;;94.13;31.20;;;;;;;;;;2542429;23;20009;-82
2023/05/10 02:12:17;;;;;;;93.47;30.67;;;;;;;;;;2550049;23;20414;-82
2023/05/10 02:13:41;;;;;;;94.50;31.02;;;;;;;;;;2541804;23;20517;-82
2023/05/10 02:15:04;;;;;;;84.10;30.65;;;;;;;;;;2533451;23;20019;-82
2023/05/10 02:16:26;;;;;;;102.57;32.50;;;;;;;;;;2537933;23;20376;-82
2023/05/10 02:17:49;;;;;;;;;;;;;;;;;;2550687;23;20483;-82
2023/05/10 02:19:11;;;;;;;86.65;29.50;;;;;;;;;;2541370;23;19904;-82
2023/05/10 02:20:33;;;;;;;107.03;33.42;;;;;;;;;;2551004;23;20347;-82
2023/05/10 02:21:55;;;;;;;109.07;33.20;;;;;;;;;;2547958;23;20431;-82
2023/05/10 02:23:29;;;;;;;103.40;31.35;;;;;;;;;;2537279;23;20017;-82
2023/05/10 02:24:50;;;;;;;137.90;40.90;;;;;;;;;;2546088;23;20355;-82
2023/05/10 02:26:13;;;;;;;102.80;31.03;;;;;;;;;;2541623;23;20201;-82
2023/05/10 02:27:41;;;;;;;109.97;32.65;;;;;;;;;;2549938;23;20017;-83
2023/05/10 02:29:03;;;;;;;104.50;32.83;;;;;;;;;;2538452;23;20434;-83
2023/05/10 02:30:26;;;;;;;;;;;;;;;;;;2550551;23;20367;-82
2023/05/10 02:31:47;;;;;;;108.25;32.33;;;;;;;;;;2543323;23;19900;-83
2023/05/10 02:33:09;;;;;;;104.18;32.22;;;;;;;;;;2545694;23;20806;-79
2023/05/10 02:34:31;;;;;;;110.47;34.38;;;;;;;;;;2537186;23;20439;-80
2023/05/10 02:35:52;;;;;;;122.38;34.20;;;;;;;;;;2527578;23;20014;-80
2023/05/10 02:37:16;;;;;;;113.40;33.33;;;;;;;;;;2549971;23;20036;-80
2023/05/10 02:38:37;;;;;;;101.35;32.30;;;;;;;;;;2539083;23;20017;-80
2023/05/10 02:39:58;;;;;;;109.82;34.03;;;;;;;;;;2547110;23;20013;-80
2023/05/10 02:41:25;;;;;;;104.47;30.88;;;;;;;;;;2554982;23;20040;-80
2023/05/10 02:42:49;;;;;;;97.15;32.38;;;;;;;;;;2556599;23;20017;-80
2023/05/10 02:44:13;;;;;;;99.57;32.42;;;;;;;;;;2540518;23;20009;-79
2023/05/10 02:45:35;;;;;;;100.57;32.70;;;;;;;;;;2539832;23;20033;-80
2023/05/10 02:46:56;;;;;;;106.45;34.47;;;;;;;;;;2551218;23;20016;-79
2023/05/10 02:48:17;;;;;;;103.68;35.42;;;;;;;;;;2543597;23;20044;-79
2023/05/10 02:49:38;;;;;;;107.28;34.65;;;;;;;;;;2539663;23;20013;-80
2023/05/10 02:51:05;;;;;;;120.13;37.63;;;;;;;;;;2549417;23;20350;-79
2023/05/10 02:52:28;;;;;;;103.60;34.47;;;;;;;;;;2538220;23;20346;-82
2023/05/10 02:53:49;;;;;;;94.32;33.50;;;;;;;;;;2548186;23;20398;-83
2023/05/10 02:55:14;;;;;;;114.10;36.20;;;;;;;;;;2511521;23;20037;-83
2023/05/10 02:56:39;;;;;;;95.93;32.80;;;;;;;;;;2529780;23;20086;-82
2023/05/10 02:58:06;;;;;;;107.95;35.60;;;;;;;;;;2540189;23;20021;-82
2023/05/10 02:59:28;;;;;;;86.72;32.47;;;;;;;;;;2538991;23;20383;-83
2023/05/10 03:00:49;;;;;;;108.35;35.78;;;;;;;;;;2546921;23;20339;-83
2023/05/10 03:02:11;;;;;;;95.25;32.67;;;;;;;;;;2537954;23;20021;-82
2023/05/10 03:03:32;;;;;;;79.28;30.17;;;;;;;;;;2547884;23;20435;-83
2023/05/10 03:04:53;;;;;;;97.97;33.47;;;;;;;;;;2538181;23;20021;-83
2023/05/10 03:06:14;;;;;;;81.53;30.83;;;;;;;;;;2536558;23;20077;-83
2023/05/10 03:07:37;;;;;;;91.90;32.00;;;;;;;;;;2536369;23;20017;-83
2023/05/10 03:09:04;;;;;;;89.78;33.63;;;;;;;;;;2548095;23;20020;-78
2023/05/10 03:10:29;;;;;;;89.00;31.70;;;;;;;;;;2535497;23;20621;-78
2023/05/10 03:11:56;;;;;;;102.32;33.58;;;;;;;;;;2533257;23;20040;-79
2023/05/10 03:13:26;;;;;;;94.68;32.92;;;;;;;;;;2538581;23;20013;-78
2023/05/10 03:14:55;;;;;;;90.43;31.40;;;;;;;;;;2539209;23;20084;-80
2023/05/10 03:16:26;;;;;;;77.38;30.45;;;;;;;;;;2540322;23;20025;-80
2023/05/10 03:17:53;;;;;;;78.25;31.05;;;;;;;;;;2547800;23;20017;-80
2023/05/10 03:19:33;;;;;;;79.05;30.27;;;;;;;;;;2542003;23;20037;-83
2023/05/10 03:21:02;;;;;;;100.38;33.53;;;;;;;;;;2536747;23;20013;-83
2023/05/10 03:22:25;;;;;;;80.93;30.95;;;;;;;;;;2542912;23;20005;-83
2023/05/10 03:23:48;;;;;;;92.20;33.90;;;;;;;;;;2550521;23;20064;-83
2023/05/10 03:25:11;;;;;;;83.82;34.17;;;;;;;;;;2545585;23;20010;-83
2023/05/10 03:26:32;;;;;;;92.20;34.72;;;;;;;;;;2541705;23;20547;-83
2023/05/10 03:27:54;;;;;;;87.93;34.25;;;;;;;;;;2556848;23;20009;-82
2023/05/10 03:29:18;;;;;;;87.82;32.83;;;;;;;;;;2543066;23;20009;-83
2023/05/10 03:30:40;;;;;;;95.80;35.72;;;;;;;;;;2537385;23;20009;-83
2023/05/10 03:32:03;;;;;;;;;;;;;;;;;;2538268;23;20013;-83
2023/05/10 03:33:27;;;;;;;98.72;36.08;;;;;;;;;;2537746;23;19905;-83
2023/05/10 03:34:48;;;;;;;108.50;38.47;;;;;;;;;;2539268;23;20025;-83
2023/05/10 03:36:12;;;;;;;105.90;37.53;;;;;;;;;;2521248;23;20021;-82
2023/05/10 03:37:35;;;;;;;96.60;37.45;;;;;;;;;;2538707;23;20021;-83
2023/05/10 03:39:02;;;;;;;109.07;37.08;;;;;;;;;;2547598;23;20020;-82
2023/05/10 03:40:26;;;;;;;99.10;35.33;;;;;;;;;;2554083;23;20071;-83
2023/05/10 03:41:47;;;;;;;114.10;39.90;;;;;;;;;;2540708;23;20024;-83
2023/05/10 03:43:08;;;;;;;112.95;39.25;;;;;;;;;;2545527;23;20017;-83
2023/05/10 03:44:29;;;;;;;105.90;39.72;;;;;;;;;;2539726;23;20426;-83
2023/05/10 03:45:53;;;;;;;117.50;39.70;;;;;;;;;;2530863;23;20017;-83
2023/05/10 03:47:14;;;;;;;103.28;38.72;;;;;;;;;;2539912;23;20121;-83
2023/05/10 03:48:35;;;;;;;111.45;38.63;;;;;;;;;;2548143;23;20428;-82
2023/05/10 03:49:59;;;;;;;117.32;40.00;;;;;;;;;;2538970;23;20025;-82
2023/05/10 03:51:27;;;;;;;115.65;40.55;;;;;;;;;;2537259;23;20016;-82
2023/05/10 03:52:48;;;;;;;94.18;35.65;;;;;;;;;;2542586;23;20013;-83
2023/05/10 03:54:09;;;;;;;110.15;38.00;;;;;;;;;;2548193;23;20009;-83
2023/05/10 03:55:34;;;;;;;100.97;36.53;;;;;;;;;;2539854;23;20482;-83
2023/05/10 03:56:58;;;;;;;95.10;35.65;;;;;;;;;;2540802;23;20016;-83
2023/05/10 03:58:19;;;;;;;104.45;36.67;;;;;;;;;;2536754;23;20029;-82
2023/05/10 03:59:40;;;;;;;112.35;38.42;;;;;;;;;;2548983;23;20467;-82
2023/05/10 04:01:04;;;;;;;114.88;41.67;;;;;;;;;;2540270;23;20020;-83
2023/05/10 04:02:25;;;;;;;96.40;37.20;;;;;;;;;;2542134;23;20021;-83
2023/05/10 04:03:48;;;;;;;105.90;36.63;;;;;;;;;;2534134;23;20371;-82
2023/05/10 04:05:13;;;;;;;107.88;37.47;;;;;;;;;;2536422;23;20361;-83
2023/05/10 04:06:33;;;;;;;106.03;37.13;;;;;;;;;;2536792;23;20025;-83
2023/05/10 04:07:55;;;;;;;94.20;36.42;;;;;;;;;;2538159;23;20367;-82
2023/05/10 04:09:16;;;;;;;96.82;34.80;;;;;;;;;;2538407;23;20470;-83
2023/05/10 04:10:43;;;;;;;87.22;34.67;;;;;;;;;;2537591;23;20140;-82
2023/05/10 04:12:05;;;;;;;105.95;36.58;;;;;;;;;;2539954;23;20375;-81
2023/05/10 04:13:26;;;;;;;78.95;31.13;;;;;;;;;;2536912;23;20498;-82
2023/05/10 04:14:47;;;;;;;93.80;34.22;;;;;;;;;;2539672;23;20494;-82
2023/05/10 04:16:08;;;;;;;73.80;31.10;;;;;;;;;;2533225;23;20010;-82
2023/05/10 04:17:29;;;;;;;87.20;32.85;;;;;;;;;;2544411;23;20009;-82
2023/05/10 04:18:50;;;;;;;86.63;31.38;;;;;;;;;;2536176;23;20020;-82
2023/05/10 04:20:11;;;;;;;80.68;30.42;;;;;;;;;;2536941;23;20024;-83
2023/05/10 04:21:32;;;;;;;96.90;32.80;;;;;;;;;;2535055;23;20016;-81
2023/05/10 04:22:53;;;;;;;85.30;31.13;;;;;;;;;;2546692;23;20017;-82
2023/05/10 04:24:14;;;;;;;77.97;27.77;;;;;;;;;;2539221;23;20102;-79
2023/05/10 04:25:38;;;;;;;89.15;31.55;;;;;;;;;;2535616;23;20009;-80
2023/05/10 04:26:59;;;;;;;75.60;28.65;;;;;;;;;;2536163;23;20025;-79
2023/05/10 04:28:23;;;;;;;79.75;28.77;;;;;;;;;;2538507;23;20017;-79
2023/05/10 04:29:44;;;;;;;91.38;30.38;;;;;;;;;;2535749;23;20045;-79
2023/05/10 04:31:06;;;;;;;75.65;27.52;;;;;;;;;;2546886;23;20207;-79
2023/05/10 04:32:27;;;;;;;85.40;28.95;;;;;;;;;;2554997;23;20016;-82
2023/05/10 04:33:50;;;;;;;77.38;26.73;;;;;;;;;;2539746;23;20022;-82
2023/05/10 04:35:11;;;;;;;72.95;27.02;;;;;;;;;;2547885;23;20008;-83
2023/05/10 04:36:35;;;;;;;68.63;25.88;;;;;;;;;;2527652;23;20021;-83
2023/05/10 04:37:58;;;;;;;77.93;27.48;;;;;;;;;;2546319;23;20024;-83
2023/05/10 04:39:20;;;;;;;64.80;23.80;;;;;;;;;;2540367;23;20008;-83
2023/05/10 04:40:40;;;;;;;85.38;27.63;;;;;;;;;;2534372;23;20024;-83
2023/05/10 04:42:05;;;;;;;79.57;27.30;;;;;;;;;;2536350;23;20452;-82
2023/05/10 04:43:27;;;;;;;78.68;28.25;;;;;;;;;;2549620;23;20450;-82
2023/05/10 04:44:48;;;;;;;79.93;27.45;;;;;;;;;;2537993;23;20005;-83
2023/05/10 04:46:09;;;;;;;99.70;31.23;;;;;;;;;;2532667;23;20126;-82
2023/05/10 04:47:32;;;;;;;70.35;26.67;;;;;;;;;;2538517;23;20335;-82
2023/05/10 04:48:53;;;;;;;74.15;27.90;;;;;;;;;;2549637;23;20016;-80
2023/05/10 04:50:15;;;;;;;69.63;26.50;;;;;;;;;;2539507;23;20018;-80
2023/05/10 04:51:44;;;;;;;76.57;27.05;;;;;;;;;;2536543;23;20016;-80
2023/05/10 04:53:06;;;;;;;67.78;24.42;;;;;;;;;;2541285;23;20435;-80
2023/05/10 04:54:27;;;;;;;70.25;25.20;;;;;;;;;;2538960;23;20009;-80
2023/05/10 04:55:48;;;;;;;71.75;26.60;;;;;;;;;;2551396;23;20379;-80
2023/05/10 04:57:09;;;;;;;62.45;25.17;;;;;;;;;;2546722;23;20013;-79
2023/05/10 04:58:30;;;;;;;60.85;24.42;;;;;;;;;;2539295;23;20006;-80
2023/05/10 04:59:51;;;;;;;68.28;26.25;;;;;;;;;;2550832;23;20016;-79
2023/05/10 05:01:15;;;;;;;76.03;27.75;;;;;;;;;;2542496;23;20017;-79
2023/05/10 05:02:36;;;;;;;68.57;25.70;;;;;;;;;;2534634;23;20017;-79
2023/05/10 05:03:57;;;;;;;76.38;25.45;;;;;;;;;;2539633;23;20013;-79
2023/05/10 05:05:18;;;;;;;58.38;24.70;;;;;;;;;;2551124;23;20347;-80
2023/05/10 05:06:39;;;;;;;66.22;25.33;;;;;;;;;;2553140;23;20509;-78
2023/05/10 05:08:02;;;;;;;71.68;26.73;;;;;;;;;;2544467;23;20016;-77
2023/05/10 05:09:27;;;;;;;57.20;24.52;;;;;;;;;;2541071;23;20036;-77
2023/05/10 05:10:50;;;;;;;64.32;24.17;;;;;;;;;;2553771;23;20016;-77
2023/05/10 05:12:13;;;;;;;58.95;23.02;;;;;;;;;;2557378;23;20012;-77
2023/05/10 05:13:37;;;;;;;56.40;22.73;;;;;;;;;;2545171;23;20017;-78
2023/05/10 05:15:03;;;;;;;55.13;21.55;;;;;;;;;;2542058;23;20032;-77
2023/05/10 05:16:26;;;;;;;66.95;26.17;;;;;;;;;;2539078;23;20005;-78
2023/05/10 05:17:47;;;;;;;61.55;23.55;;;;;;;;;;2538594;23;20012;-77
2023/05/10 05:19:08;;;;;;;51.55;22.92;;;;;;;;;;2551804;23;20431;-77
2023/05/10 05:20:33;;;;;;;52.70;22.33;;;;;;;;;;2544381;23;20016;-78
2023/05/10 05:21:54;;;;;;;55.33;23.05;;;;;;;;;;2538756;23;20073;-78
2023/05/10 05:23:15;;;;;;;47.40;21.33;;;;;;;;;;2554502;23;20020;-78
2023/05/10 05:24:42;;;;;;;56.08;23.88;;;;;;;;;;2543275;23;20013;-78
2023/05/10 05:26:03;;;;;;;47.85;21.45;;;;;;;;;;2541422;23;20013;-78
2023/05/10 05:27:26;;;;;;;47.83;20.13;;;;;;;;;;2539878;23;20068;-77
2023/05/10 05:28:52;;;;;;;46.55;20.90;;;;;;;;;;2539869;23;20371;-82
2023/05/10 05:30:16;;;;;;;43.42;20.45;;;;;;;;;;2543941;23;20339;-83
2023/05/10 05:31:39;;;;;;;46.92;20.92;;;;;;;;;;2541951;23;20018;-83
2023/05/10 05:33:00;;;;;;;50.10;21.25;;;;;;;;;;2540147;23;20016;-80
2023/05/10 05:34:25;;;;;;;45.05;20.55;;;;;;;;;;2540386;23;20021;-80
2023/05/10 05:35:50;;;;;;;48.63;20.73;;;;;;;;;;2545206;23;20010;-80
2023/05/10 05:37:18;;;;;;;59.40;22.80;;;;;;;;;;2538395;23;20017;-81
2023/05/10 05:38:39;;;;;;;46.20;21.42;;;;;;;;;;2539799;23;20018;-81
2023/05/10 05:40:01;;;;;;;58.38;22.55;;;;;;;;;;2538216;23;20018;-81
2023/05/10 05:41:25;;;;;;;59.15;23.67;;;;;;;;;;2540515;23;20021;-81
2023/05/10 05:42:46;;;;;;;49.50;22.60;;;;;;;;;;2542006;23;20021;-82
2023/05/10 05:44:10;;;;;;;50.72;22.33;;;;;;;;;;2541664;23;20061;-80
2023/05/10 05:45:31;;;;;;;60.22;23.08;;;;;;;;;;2539695;23;20064;-80
2023/05/10 05:46:55;;;;;;;50.60;23.08;;;;;;;;;;2537112;23;20018;-80
2023/05/10 05:48:16;;;;;;;52.00;22.80;;;;;;;;;;2541461;23;20006;-80
2023/05/10 05:49:37;;;;;;;52.03;21.58;;;;;;;;;;2541337;23;20010;-81
2023/05/10 05:51:00;;;;;;;59.00;23.05;;;;;;;;;;2552355;23;19993;-80
2023/05/10 05:52:24;;;;;;;54.25;22.42;;;;;;;;;;2543354;23;20009;-82
2023/05/10 05:53:45;;;;;;;64.45;24.88;;;;;;;;;;2539684;23;20452;-82
2023/05/10 05:55:06;;;;;;;71.15;26.52;;;;;;;;;;2537471;23;20009;-80
2023/05/10 05:56:36;;;;;;;71.07;28.50;;;;;;;;;;2550431;23;20016;-80
2023/05/10 05:58:01;;;;;;;54.08;22.58;;;;;;;;;;2543531;23;20017;-81
2023/05/10 05:59:23;;;;;;;52.30;23.30;;;;;;;;;;2550903;23;20016;-81
2023/05/10 06:00:44;;;;;;;57.58;23.45;;;;;;;;;;2544271;23;20010;-81
2023/05/10 06:02:04;;;;;;;50.78;22.80;;;;;;;;;;2545806;23;20017;-81
2023/05/10 06:03:25;;;;;;;57.78;24.40;;;;;;;;;;2543537;23;20036;-81
2023/05/10 06:04:47;;;;;;;52.47;22.25;;;;;;;;;;2539907;23;20005;-81
2023/05/10 06:06:08;;;;;;;55.88;23.60;;;;;;;;;;2538568;23;20108;-83
2023/05/10 06:07:29;;;;;;;47.95;20.20;;;;;;;;;;2538223;23;20347;-81
2023/05/10 06:08:53;;;;;;;52.70;22.38;;;;;;;;;;2539146;23;20006;-81
2023/05/10 06:10:17;;;;;;;44.85;22.42;;;;;;;;;;2553007;23;20355;-81
2023/05/10 06:11:41;;;;;;;49.33;21.02;;;;;;;;;;2543039;23;20013;-82
2023/05/10 06:13:05;;;;;;;51.58;22.95;;;;;;;;;;2538427;23;20020;-81
2023/05/10 06:14:28;;;;;;;54.28;23.13;;;;;;;;;;2540487;23;20068;-82
2023/05/10 06:15:49;;;;;;;42.28;20.48;;;;;;;;;;2533355;23;20018;-81
2023/05/10 06:17:10;;;;;;;49.53;21.00;;;;;;;;;;2536747;23;20021;-81
2023/05/10 06:18:31;;;;;;;51.10;23.02;;;;;;;;;;2537938;23;20447;-81
2023/05/10 06:19:54;;;;;;;48.35;21.27;;;;;;;;;;2539947;23;20325;-81
2023/05/10 06:21:17;;;;;;;54.50;22.75;;;;;;;;;;2549939;23;20040;-81
2023/05/10 06:22:38;;;;;;;49.42;22.02;;;;;;;;;;2543789;23;20018;-82
2023/05/10 06:24:02;;;;;;;45.17;22.15;;;;;;;;;;2551628;23;20009;-81
2023/05/10 06:25:25;;;;;;;48.75;21.80;;;;;;;;;;2542999;23;20368;-81
2023/05/10 06:26:46;;;;;;;52.45;22.45;;;;;;;;;;2538161;23;20006;-82
2023/05/10 06:28:10;;;;;;;48.35;19.83;;;;;;;;;;2540069;23;20009;-83
2023/05/10 06:29:36;;;;;;;48.63;21.42;;;;;;;;;;2551572;23;20020;-83
2023/05/10 06:30:59;;;;;;;45.88;22.00;;;;;;;;;;2545201;23;20016;-81
2023/05/10 06:32:20;;;;;;;44.33;20.20;;;;;;;;;;2539262;23;20427;-82
2023/05/10 06:33:44;;;;;;;48.13;22.45;;;;;;;;;;2551500;23;20304;-83
2023/05/10 06:35:05;;;;;;;47.97;19.85;;;;;;;;;;2545179;23;20010;-85
2023/05/10 06:36:29;;;;;;;46.33;22.20;;;;;;;;;;2539928;23;20017;-80
2023/05/10 06:37:51;;;;;;;41.55;20.33;;;;;;;;;;2550765;23;20371;-85
2023/05/10 06:39:12;;;;;;;47.47;20.45;;;;;;;;;;2543721;23;20447;-84
2023/05/10 06:40:33;;;;;;;42.42;19.40;;;;;;;;;;2541817;23;20057;-84
2023/05/10 06:41:54;;;;;;;42.22;21.02;;;;;;;;;;2541048;23;20012;-86
2023/05/10 06:43:16;;;;;;;43.03;20.13;;;;;;;;;;2552371;23;20016;-85
2023/05/10 06:44:37;;;;;;;47.25;21.67;;;;;;;;;;2543935;23;20343;-84
2023/05/10 06:46:03;;;;;;;43.78;20.88;;;;;;;;;;2541435;23;20010;-85
2023/05/10 06:47:24;;;;;;;49.30;21.15;;;;;;;;;;2539630;23;20017;-84
2023/05/10 06:48:48;;;;;;;48.30;22.95;;;;;;;;;;2540199;23;20013;-85
2023/05/10 06:50:14;;;;;;;48.03;20.63;;;;;;;;;;2537187;23;20045;-84
2023/05/10 06:51:38;;;;;;;42.85;20.27;;;;;;;;;;2544856;23;19989;-85
2023/05/10 06:53:00;;;;;;;53.83;21.50;;;;;;;;;;2551945;23;20013;-85
2023/05/10 06:54:21;;;;;;;43.65;21.27;;;;;;;;;;2556449;23;20019;-85
2023/05/10 06:55:42;;;;;;;50.50;22.15;;;;;;;;;;2544458;23;20037;-85
2023/05/10 06:57:03;;;;;;;44.78;21.52;;;;;;;;;;2551932;23;20013;-85
2023/05/10 06:58:24;;;;;;;45.75;22.13;;;;;;;;;;2543902;23;20018;-85
2023/05/10 06:59:51;;;;;;;62.25;22.77;;;;;;;;;;2539254;23;20014;-84
2023/05/10 07:01:14;;;;;;;50.55;21.88;;;;;;;;;;2542745;23;20014;-85
2023/05/10 07:02:36;;;;;;;49.97;21.20;;;;;;;;;;2552744;23;20099;-84
2023/05/10 07:03:59;;;;;;;46.33;21.63;;;;;;;;;;2543770;23;20355;-85
2023/05/10 07:05:20;;;;;;;48.20;22.23;;;;;;;;;;2542816;23;20442;-85
2023/05/10 07:06:46;;;;;;;60.63;24.08;;;;;;;;;;2538300;23;20016;-85
2023/05/10 07:08:07;;;;;;;43.95;21.52;;;;;;;;;;2552310;23;20485;-84
2023/05/10 07:09:28;;;;;;;46.43;21.67;;;;;;;;;;2543963;23;20018;-85
2023/05/10 07:10:49;;;;;;;56.08;22.73;;;;;;;;;;2538516;23;20399;-84
2023/05/10 07:12:13;;;;;;;48.63;22.45;;;;;;;;;;2540033;23;20013;-85
2023/05/10 07:13:34;;;;;;;49.00;21.38;;;;;;;;;;2552236;23;20020;-85
2023/05/10 07:14:55;;;;;;;49.90;22.98;;;;;;;;;;2543124;23;20010;-84
2023/05/10 07:16:18;;;;;;;47.63;23.23;;;;;;;;;;2537332;23;20056;-83
2023/05/10 07:17:39;;;;;;;54.55;22.30;;;;;;;;;;2541792;23;20013;-85
2023/05/10 07:19:00;;;;;;;55.30;22.95;;;;;;;;;;2543156;23;20017;-83
2023/05/10 07:20:21;;;;;;;45.65;22.52;;;;;;;;;;2553814;23;20430;-84
2023/05/10 07:21:43;;;;;;;42.60;21.13;;;;;;;;;;2558483;23;20406;-83
2023/05/10 07:23:06;;;;;;;43.83;22.10;;;;;;;;;;2545938;23;20068;-83
2023/05/10 07:24:29;;;;;;;51.35;22.83;;;;;;;;;;2541271;23;20017;-83
2023/05/10 07:25:54;;;;;;;47.58;22.30;;;;;;;;;;2543652;23;20010;-83
2023/05/10 07:27:15;;;;;;;48.05;22.17;;;;;;;;;;2550787;23;20005;-82
2023/05/10 07:28:39;;;;;;;43.35;21.63;;;;;;;;;;2543180;23;20009;-83
2023/05/10 07:30:00;;;;;;;47.70;23.35;;;;;;;;;;2542577;23;20006;-83
2023/05/10 07:31:21;;;;;;;43.28;22.08;;;;;;;;;;2542132;23;20010;-83
2023/05/10 07:32:44;;;;;;;46.65;22.00;;;;;;;;;;2541215;23;20010;-83
2023/05/10 07:34:05;;;;;;;48.45;22.55;;;;;;;;;;2543895;23;20009;-83
2023/05/10 07:35:26;;;;;;;56.90;25.90;;;;;;;;;;2539041;23;20029;-82
2023/05/10 07:36:48;;;;;;;61.47;25.05;;;;;;;;;;2541459;23;20568;-83
2023/05/10 07:38:10;;;;;;;48.20;23.30;;;;;;;;;;2554425;23;20487;-84
2023/05/10 07:39:31;;;;;;;;;;;;;;;;;;2547032;23;20013;-83
2023/05/10 07:40:52;;;;;;;50.47;22.23;;;;;;;;;;2539027;23;19900;-84
2023/05/10 07:42:13;;;;;;;45.50;23.73;;;;;;;;;;2543800;23;20014;-84
2023/05/10 07:43:34;;;;;;;53.42;25.83;;;;;;;;;;2545764;23;20435;-83
2023/05/10 07:44:55;;;;;;;50.92;24.08;;;;;;;;;;2542739;23;20013;-83
2023/05/10 07:46:16;;;;;;;49.97;24.10;;;;;;;;;;2541640;23;20029;-83
2023/05/10 07:47:37;;;;;;;46.88;22.98;;;;;;;;;;2525365;23;20021;-83
2023/05/10 07:48:58;;;;;;;45.47;22.08;;;;;;;;;;2539277;23;20013;-84
2023/05/10 07:50:20;;;;;;;44.45;21.50;;;;;;;;;;2541540;23;20431;-84
2023/05/10 07:51:42;;;;;;;46.67;21.23;;;;;;;;;;2540087;23;20396;-83
2023/05/10 07:53:03;;;;;;;39.85;19.92;;;;;;;;;;2541797;23;20036;-84
2023/05/10 07:54:24;;;;;;;41.83;20.58;;;;;;;;;;2539720;23;20009;-83
2023/05/10 07:55:49;;;;;;;45.95;22.52;;;;;;;;;;2553430;23;20009;-83
2023/05/10 07:57:10;;;;;;;48.42;22.40;;;;;;;;;;2526764;23;20432;-83
2023/05/10 07:58:31;;;;;;;50.35;22.25;;;;;;;;;;2544626;23;20022;-83
2023/05/10 07:59:53;;;;;;;48.25;21.85;;;;;;;;;;2532311;23;20084;-83
2023/05/10 08:01:16;;;;;;;48.30;23.17;;;;;;;;;;2538492;23;20016;-84
2023/05/10 08:02:37;;;;;;;50.00;20.95;;;;;;;;;;2545898;23;20347;-84
2023/05/10 08:03:58;;;;;;;45.72;21.58;;;;;;;;;;2546100;23;20013;-83
2023/05/10 08:05:20;;;;;;;51.88;23.45;;;;;;;;;;2534857;23;20017;-83
2023/05/10 08:06:41;;;;;;;43.90;22.70;;;;;;;;;;2542986;23;20339;-82
2023/05/10 08:08:02;;;;;;;53.85;22.42;;;;;;;;;;2533741;23;20010;-83
2023/05/10 08:09:23;;;;;;;43.80;20.92;;;;;;;;;;2542642;23;20009;-83
2023/05/10 08:10:44;;;;;;;49.87;23.57;;;;;;;;;;2532105;23;20017;-82
2023/05/10 08:12:08;;;;;;;43.97;21.45;;;;;;;;;;2541388;23;20811;-82
2023/05/10 08:13:29;;;;;;;41.95;21.27;;;;;;;;;;2533004;23;20017;-83